Harrietsham, United Kingdom
Current Conditions -  °F | °C
As of 6:20 AM on Saturday 25 Oct 2014 (Local Time) from EGMC Reporting Station
Clear Clear  
Wind Chill: 46°   Ceiling: Unl
Heat Index: 46°   Visibility: 6mi
Dew Point: 45°   Wind: 3mph
Humidity: 93%   Direction: 260°W
Pressure: 30"   Gusts: NA
Location:  51.24°N, 0.67°E
Report Text: EGMC 250520Z 26003KT CAVOK 08/07 Q1016
Loading
Personal Weather Stations






























Interactive Weather Map
Tropical Storm Tracking
New forecast layout! Learn more

10-Day Weather Forecast

Advertisements
Track Severe Weather on mobile